createdAt,value
2023-02-13T00:01:27.867Z,-0.10
2023-02-13T00:06:25.506Z,0.10
2023-02-13T00:08:57.778Z,0.20
2023-02-13T00:11:27.569Z,0.30
2023-02-13T00:16:24.584Z,0.50
2023-02-13T00:21:21.779Z,1.00
2023-02-13T00:23:50.159Z,1.00
2023-02-13T00:26:19.476Z,1.00
2023-02-13T00:28:49.994Z,1.20
2023-02-13T00:31:22.404Z,1.30
2023-02-13T00:33:51.347Z,1.30
2023-02-13T00:36:23.435Z,1.30
2023-02-13T00:38:53.312Z,0.20
2023-02-13T00:41:23.341Z,1.40
2023-02-13T00:43:54.617Z,1.40
2023-02-13T00:46:23.997Z,1.40
2023-02-13T00:48:52.741Z,1.30
2023-02-13T00:51:21.159Z,1.30
2023-02-13T00:53:49.454Z,1.30
2023-02-13T00:56:22.053Z,3.40
2023-02-13T00:58:50.654Z,1.30
2023-02-13T01:01:20.455Z,1.20
2023-02-13T01:03:48.896Z,1.20
2023-02-13T01:08:46.162Z,1.20
2023-02-13T01:11:14.764Z,1.10
2023-02-13T01:18:45.838Z,1.20
2023-02-13T01:21:19.849Z,1.20
2023-02-13T01:26:22.390Z,1.10
2023-02-13T01:28:55.509Z,1.10
2023-02-13T01:31:24.064Z,1.50
2023-02-13T01:33:57.016Z,1.10
2023-02-13T01:36:27.751Z,1.10
2023-02-13T01:38:57.981Z,1.10
2023-02-13T01:41:28.714Z,1.10
2023-02-13T01:44:00.345Z,1.10
2023-02-13T01:46:38.204Z,1.10
2023-02-13T01:49:18.673Z,1.00
2023-02-13T01:51:48.588Z,1.00
2023-02-13T01:56:55.170Z,1.80
2023-02-13T01:59:30.892Z,1.10
2023-02-13T02:02:00.960Z,1.10
2023-02-13T02:04:34.797Z,1.00
2023-02-13T02:07:15.835Z,1.00
2023-02-13T02:09:46.804Z,1.00
2023-02-13T02:12:27.089Z,1.10
2023-02-13T02:15:02.625Z,1.00
2023-02-13T02:20:23.583Z,1.00
2023-02-13T02:23:54.441Z,1.00
2023-02-13T02:27:15.736Z,1.00
2023-02-13T02:30:29.024Z,0.90
2023-02-13T02:33:31.002Z,0.90
2023-02-13T02:36:22.683Z,0.90
2023-02-13T02:39:09.675Z,0.80
2023-02-13T02:41:55.959Z,0.80
2023-02-13T02:44:42.170Z,0.80
2023-02-13T02:47:42.184Z,0.70
2023-02-13T02:50:34.132Z,0.70
2023-02-13T02:53:22.751Z,0.70
2023-02-13T02:56:00.165Z,0.70
2023-02-13T02:58:55.592Z,0.70
2023-02-13T03:01:51.135Z,0.60
2023-02-13T03:04:44.070Z,-0.10
2023-02-13T03:07:18.733Z,0.60
2023-02-13T03:10:10.737Z,0.50
2023-02-13T03:13:04.689Z,0.40
2023-02-13T03:15:56.597Z,0.50
2023-02-13T03:18:42.654Z,0.50
2023-02-13T03:21:36.508Z,0.50
2023-02-13T03:24:18.588Z,0.40
2023-02-13T03:26:57.888Z,0.40
2023-02-13T03:30:02.653Z,0.40
2023-02-13T03:32:43.803Z,0.40
2023-02-13T03:35:53.201Z,0.30
2023-02-13T03:38:31.448Z,1.80
2023-02-13T03:41:20.731Z,0.30
2023-02-13T03:44:05.189Z,0.40
2023-02-13T03:46:38.655Z,0.30
2023-02-13T03:49:32.091Z,0.30
2023-02-13T03:52:08.658Z,0.30
2023-02-13T03:55:03.382Z,0.30
2023-02-13T03:57:55.166Z,0.30
2023-02-13T04:00:28.958Z,0.30
2023-02-13T04:03:15.671Z,0.30
2023-02-13T04:05:51.048Z,0.20
2023-02-13T04:13:35.341Z,0.20
2023-02-13T04:16:12.650Z,0.30
2023-02-13T04:18:42.366Z,0.30
2023-02-13T04:21:10.907Z,0.30
2023-02-13T04:23:39.227Z,0.30
2023-02-13T04:26:20.210Z,0.30
2023-02-13T04:28:50.150Z,0.30
2023-02-13T04:36:15.860Z,0.20
2023-02-13T04:38:45.475Z,0.20
2023-02-13T04:41:14.222Z,0.20
2023-02-13T04:43:43.487Z,0.20
2023-02-13T04:46:13.291Z,-0.70
2023-02-13T04:48:41.725Z,0.20
2023-02-13T04:51:10.028Z,0.20
2023-02-13T04:56:07.685Z,0.10
2023-02-13T04:58:36.030Z,0.20
2023-02-13T05:01:04.817Z,-0.10
2023-02-13T05:03:38.202Z,0.20
2023-02-13T05:08:36.243Z,0.20
2023-02-13T05:13:33.353Z,0.20
2023-02-13T05:18:30.649Z,2.40
2023-02-13T05:21:18.114Z,0.20
2023-02-13T05:31:30.009Z,-0.60
2023-02-13T05:33:58.352Z,0.20
2023-02-13T05:36:28.406Z,0.20
2023-02-13T05:38:56.667Z,0.10
2023-02-13T05:41:24.999Z,0.20
2023-02-13T05:43:53.641Z,0.10
2023-02-13T05:46:22.327Z,1.20
2023-02-13T05:48:50.933Z,0.10
2023-02-13T05:51:19.573Z,0.00
2023-02-13T05:53:49.236Z,0.10
2023-02-13T05:58:46.425Z,0.00
2023-02-13T06:01:15.011Z,0.10
2023-02-13T06:03:43.342Z,0.00
2023-02-13T06:06:11.710Z,-0.70
2023-02-13T06:11:10.724Z,0.00
2023-02-13T06:13:40.734Z,-0.10
2023-02-13T06:18:38.980Z,0.10
2023-02-13T06:21:08.685Z,0.10
2023-02-13T06:23:37.236Z,0.10
2023-02-13T06:28:36.906Z,0.10
2023-02-13T06:33:35.128Z,0.00
2023-02-13T06:38:32.681Z,0.10
2023-02-13T06:41:03.162Z,0.10
2023-02-13T06:43:31.879Z,0.10
2023-02-13T06:46:05.439Z,0.20
2023-02-13T06:48:34.283Z,0.10
2023-02-13T06:51:02.755Z,0.20
2023-02-13T06:53:32.127Z,0.20
2023-02-13T06:56:00.474Z,0.10
2023-02-13T07:00:57.771Z,0.10
2023-02-13T07:03:27.717Z,-3.00
2023-02-13T07:05:56.627Z,0.20
2023-02-13T07:10:54.020Z,0.20
2023-02-13T07:13:22.346Z,0.10
2023-02-13T07:15:51.111Z,0.10
2023-02-13T07:18:19.484Z,0.10
2023-02-13T07:20:49.195Z,0.20
2023-02-13T07:23:17.578Z,0.10
2023-02-13T07:25:45.891Z,0.20
2023-02-13T07:28:14.574Z,0.10
2023-02-13T07:30:42.964Z,0.20
2023-02-13T07:33:13.518Z,0.20
2023-02-13T07:38:17.922Z,0.20
2023-02-13T07:40:46.643Z,0.20
2023-02-13T07:45:43.963Z,0.10
2023-02-13T07:53:14.120Z,0.00
2023-02-13T07:55:43.185Z,0.30
2023-02-13T07:58:11.950Z,0.30
2023-02-13T08:00:40.243Z,0.30
2023-02-13T08:03:08.627Z,0.30
2023-02-13T08:08:06.450Z,0.30
2023-02-13T08:10:53.499Z,0.50
2023-02-13T08:13:21.893Z,0.40
2023-02-13T08:15:50.374Z,0.50
2023-02-13T08:18:19.973Z,0.50
2023-02-13T08:20:48.582Z,0.50
2023-02-13T08:23:16.950Z,0.50
2023-02-13T08:25:47.763Z,0.60
2023-02-13T08:35:42.653Z,0.80
2023-02-13T08:38:11.423Z,0.80
2023-02-13T08:40:39.732Z,0.90
2023-02-13T08:43:09.482Z,0.80
2023-02-13T08:45:38.078Z,0.80
2023-02-13T08:48:07.563Z,0.80
2023-02-13T08:50:37.111Z,0.70
2023-02-13T08:58:04.934Z,0.80
2023-02-13T09:00:34.866Z,0.90
2023-02-13T09:03:04.163Z,1.00
2023-02-13T09:05:33.073Z,1.10
2023-02-13T09:08:03.690Z,1.10
2023-02-13T09:10:33.658Z,1.20
2023-02-13T09:13:02.556Z,1.30
2023-02-13T09:15:31.636Z,1.40
2023-02-13T09:18:01.534Z,1.40
2023-02-13T09:25:27.162Z,1.10
2023-02-13T09:27:55.486Z,1.10
2023-02-13T09:30:24.470Z,1.20
2023-02-13T09:32:54.222Z,1.20
2023-02-13T09:35:25.117Z,1.30
2023-02-13T09:37:57.002Z,1.20
2023-02-13T09:40:35.984Z,1.20
2023-02-13T09:43:14.758Z,1.30
2023-02-13T09:45:47.179Z,1.30
2023-02-13T09:48:28.771Z,1.30
2023-02-13T09:50:59.768Z,1.50
2023-02-13T09:53:33.434Z,1.50
2023-02-13T09:56:15.356Z,1.60
2023-02-13T09:58:49.257Z,1.70
2023-02-13T10:01:30.790Z,1.70
2023-02-13T10:04:32.001Z,1.90
2023-02-13T10:07:21.464Z,2.00
2023-02-13T10:10:03.128Z,2.00
2023-02-13T10:12:52.349Z,1.90
2023-02-13T10:15:32.501Z,2.00
2023-02-13T10:18:08.012Z,2.10
2023-02-13T10:20:45.394Z,2.00
2023-02-13T10:23:25.724Z,1.80
2023-02-13T10:25:59.619Z,1.70
2023-02-13T10:28:43.658Z,1.90
2023-02-13T10:31:18.704Z,2.00
2023-02-13T10:33:51.744Z,2.20
2023-02-13T10:36:26.269Z,2.30
2023-02-13T10:39:02.876Z,2.40
2023-02-13T10:41:47.510Z,2.50
2023-02-13T10:44:44.089Z,2.40
2023-02-13T10:47:37.598Z,2.20
2023-02-13T10:50:24.341Z,2.30
2023-02-13T10:53:08.124Z,2.30
2023-02-13T10:56:21.248Z,2.50
2023-02-13T10:59:08.837Z,2.50
2023-02-13T11:01:47.970Z,2.50
2023-02-13T11:04:20.736Z,2.60
2023-02-13T11:06:59.104Z,2.60
2023-02-13T11:09:31.247Z,2.60
2023-02-13T11:12:27.571Z,2.50
2023-02-13T11:14:59.352Z,2.50
2023-02-13T11:17:31.448Z,2.40
2023-02-13T11:20:05.618Z,2.50
2023-02-13T11:22:39.303Z,2.40
2023-02-13T11:25:19.664Z,2.40
2023-02-13T11:27:53.050Z,2.50
2023-02-13T11:30:35.011Z,2.50
2023-02-13T11:33:08.124Z,2.60
2023-02-13T11:35:38.235Z,2.80
2023-02-13T11:38:21.943Z,2.80
2023-02-13T11:40:58.017Z,2.70
2023-02-13T11:43:34.607Z,2.70
2023-02-13T11:46:06.562Z,2.60
2023-02-13T11:48:35.527Z,2.80
2023-02-13T11:51:05.739Z,2.90
2023-02-13T11:53:40.574Z,2.80
2023-02-13T11:56:13.073Z,2.70
2023-02-13T11:58:43.392Z,2.70
2023-02-13T12:01:29.425Z,2.90
2023-02-13T12:04:11.217Z,2.60
2023-02-13T12:06:42.469Z,2.60
2023-02-13T12:09:16.735Z,2.70
2023-02-13T12:11:50.972Z,2.70
2023-02-13T12:14:24.236Z,2.80
2023-02-13T12:16:58.852Z,2.70
2023-02-13T12:19:39.372Z,2.80
2023-02-13T12:22:35.058Z,2.70
2023-02-13T12:25:36.270Z,2.70
2023-02-13T12:28:13.743Z,2.80
2023-02-13T12:31:09.380Z,2.90
2023-02-13T12:34:23.889Z,2.90
2023-02-13T12:37:09.277Z,3.00
2023-02-13T12:39:47.429Z,2.90
2023-02-13T12:42:39.651Z,3.20
2023-02-13T12:45:30.187Z,3.00
2023-02-13T12:48:27.506Z,3.20
2023-02-13T12:51:18.818Z,3.20
2023-02-13T12:54:11.507Z,3.20
2023-02-13T12:57:03.118Z,3.20
2023-02-13T12:59:54.131Z,3.10
2023-02-13T13:02:55.857Z,3.10
2023-02-13T13:05:40.875Z,3.10
2023-02-13T13:08:47.261Z,3.10
2023-02-13T13:11:35.019Z,3.10
2023-02-13T13:14:16.085Z,3.00
2023-02-13T13:16:55.263Z,3.10
2023-02-13T13:19:42.780Z,3.10
2023-02-13T13:22:20.538Z,2.80
2023-02-13T13:25:05.614Z,3.00
2023-02-13T13:27:44.242Z,3.00
2023-02-13T13:30:22.981Z,3.00
2023-02-13T13:32:59.038Z,3.10
2023-02-13T13:35:28.441Z,3.10
2023-02-13T13:38:10.161Z,3.10
2023-02-13T13:40:47.425Z,3.00
2023-02-13T13:43:30.041Z,2.90
2023-02-13T13:46:12.276Z,2.90
2023-02-13T13:49:07.649Z,3.00
2023-02-13T13:51:36.082Z,3.00
2023-02-13T13:54:34.912Z,3.10
2023-02-13T13:57:12.608Z,3.10
2023-02-13T14:00:27.184Z,3.20
2023-02-13T14:03:26.244Z,3.10
2023-02-13T14:06:09.437Z,4.40
2023-02-13T14:09:07.291Z,3.10
2023-02-13T14:11:46.958Z,4.40
2023-02-13T14:14:55.276Z,3.10
2023-02-13T14:17:54.700Z,3.10
2023-02-13T14:20:41.709Z,3.10
2023-02-13T14:23:38.649Z,3.10
2023-02-13T14:26:42.693Z,3.10
2023-02-13T14:29:34.063Z,3.00
2023-02-13T14:32:09.131Z,3.10
2023-02-13T14:34:40.759Z,3.10
2023-02-13T14:37:27.696Z,2.10
2023-02-13T14:40:34.618Z,3.00
2023-02-13T14:43:54.770Z,2.90
2023-02-13T14:46:38.126Z,2.90
2023-02-13T14:51:50.540Z,2.80
2023-02-13T14:57:20.161Z,2.80
2023-02-13T14:59:54.900Z,2.90
2023-02-13T15:02:25.886Z,2.80
2023-02-13T15:05:01.140Z,2.80
2023-02-13T15:07:35.656Z,2.90
2023-02-13T15:10:28.306Z,2.90
2023-02-13T15:12:59.474Z,2.90
2023-02-13T15:15:37.266Z,2.90
2023-02-13T15:18:12.952Z,2.90
2023-02-13T15:20:44.901Z,2.90
2023-02-13T15:23:23.748Z,2.90
2023-02-13T15:26:00.863Z,3.00
2023-02-13T15:28:30.851Z,3.00
2023-02-13T15:31:03.969Z,3.00
2023-02-13T15:33:44.187Z,3.00
2023-02-13T15:36:20.675Z,2.90
2023-02-13T15:38:49.745Z,2.90
2023-02-13T15:41:24.582Z,2.90
2023-02-13T15:43:58.284Z,3.00
2023-02-13T15:46:31.236Z,3.00
2023-02-13T15:49:06.036Z,3.00
2023-02-13T15:54:06.658Z,3.00
2023-02-13T15:56:36.459Z,4.50
2023-02-13T15:59:05.441Z,3.00
2023-02-13T16:01:35.999Z,3.00
2023-02-13T16:04:10.073Z,2.90
2023-02-13T16:06:38.744Z,3.00
2023-02-13T16:11:38.832Z,1.80
2023-02-13T16:14:17.298Z,3.00
2023-02-13T16:16:53.859Z,3.00
2023-02-13T16:19:34.744Z,3.00
2023-02-13T16:22:16.993Z,3.00
2023-02-13T16:24:52.061Z,3.00
2023-02-13T16:27:25.338Z,2.90
2023-02-13T16:29:59.840Z,2.90
2023-02-13T16:32:33.370Z,2.80
2023-02-13T16:35:18.908Z,2.90
2023-02-13T16:37:57.316Z,1.10
2023-02-13T16:40:42.907Z,2.90
2023-02-13T16:43:46.022Z,2.90
2023-02-13T16:46:35.073Z,2.70
2023-02-13T16:49:18.963Z,2.80
2023-02-13T16:51:56.765Z,2.70
2023-02-13T16:54:32.725Z,2.80
2023-02-13T16:57:06.801Z,2.90
2023-02-13T16:59:53.725Z,2.90
2023-02-13T17:02:25.685Z,2.90
2023-02-13T17:04:59.817Z,2.90
2023-02-13T17:07:30.878Z,2.80
2023-02-13T17:10:05.829Z,2.90
2023-02-13T17:12:39.414Z,2.90
2023-02-13T17:15:13.733Z,2.90
2023-02-13T17:17:42.350Z,2.90
2023-02-13T17:20:17.891Z,2.90
2023-02-13T17:22:49.320Z,2.90
2023-02-13T17:25:22.580Z,2.90
2023-02-13T17:27:52.065Z,2.90
2023-02-13T17:30:24.420Z,2.90
2023-02-13T17:32:59.935Z,4.60
2023-02-13T17:35:31.771Z,2.90
2023-02-13T17:38:00.544Z,3.00
2023-02-13T17:40:31.911Z,3.30
2023-02-13T17:43:00.995Z,2.90
2023-02-13T17:45:34.410Z,2.90
2023-02-13T17:48:02.832Z,2.90
2023-02-13T17:50:35.106Z,2.90
2023-02-13T17:53:06.690Z,2.90
2023-02-13T17:55:36.890Z,2.90
2023-02-13T17:58:05.108Z,3.00
2023-02-13T18:00:35.578Z,3.00
2023-02-13T18:03:04.235Z,3.50
2023-02-13T18:10:34.173Z,3.00
2023-02-13T18:18:03.412Z,3.00
2023-02-13T18:20:33.404Z,3.00
2023-02-13T18:23:01.937Z,2.90
2023-02-13T18:25:30.355Z,2.90
2023-02-13T18:27:58.710Z,2.90
2023-02-13T18:30:27.107Z,2.90
2023-02-13T18:32:58.952Z,2.90
2023-02-13T18:35:27.705Z,3.30
2023-02-13T18:37:57.459Z,2.90
2023-02-13T18:40:25.728Z,3.00
2023-02-13T18:42:54.054Z,3.00
2023-02-13T18:47:51.283Z,3.00
2023-02-13T18:52:48.456Z,3.00
2023-02-13T18:55:18.288Z,3.00
2023-02-13T18:57:48.039Z,3.00
2023-02-13T19:00:18.793Z,2.90
2023-02-13T19:02:47.212Z,2.90
2023-02-13T19:05:15.613Z,2.80
2023-02-13T19:07:44.030Z,2.90
2023-02-13T19:12:44.495Z,2.90
2023-02-13T19:15:13.095Z,2.90
2023-02-13T19:17:41.420Z,4.20
2023-02-13T19:20:11.135Z,3.00
2023-02-13T19:25:09.408Z,3.00
2023-02-13T19:27:39.144Z,2.90
2023-02-13T19:30:12.342Z,2.80
2023-02-13T19:32:41.511Z,2.90
2023-02-13T19:40:14.271Z,2.90
2023-02-13T19:42:42.603Z,2.90
2023-02-13T19:45:12.711Z,2.80
2023-02-13T19:47:40.984Z,2.80
2023-02-13T19:50:10.354Z,2.80
2023-02-13T19:52:39.081Z,2.80
2023-02-13T19:55:08.296Z,2.90
2023-02-13T19:57:36.878Z,2.80
2023-02-13T20:00:07.727Z,2.80
2023-02-13T20:02:42.216Z,2.80
2023-02-13T20:05:11.329Z,2.80
2023-02-13T20:07:39.779Z,2.80
2023-02-13T20:10:10.902Z,2.80
2023-02-13T20:12:39.632Z,5.00
2023-02-13T20:15:08.861Z,2.80
2023-02-13T20:17:39.129Z,2.80
2023-02-13T20:20:10.664Z,4.20
2023-02-13T20:22:39.217Z,2.90
2023-02-13T20:25:07.984Z,2.70
2023-02-13T20:27:42.111Z,2.80
2023-02-13T20:30:15.947Z,2.80
2023-02-13T20:32:44.665Z,2.80
2023-02-13T20:35:14.498Z,2.80
2023-02-13T20:37:43.305Z,2.80
2023-02-13T20:40:12.853Z,2.80
2023-02-13T20:45:10.998Z,2.70
2023-02-13T20:50:10.258Z,3.50
2023-02-13T20:52:40.082Z,2.70
2023-02-13T20:55:09.375Z,2.70
2023-02-13T20:57:38.392Z,2.70
2023-02-13T21:00:12.090Z,2.70
2023-02-13T21:02:40.762Z,2.60
2023-02-13T21:07:39.392Z,2.70
2023-02-13T21:10:08.875Z,2.70
2023-02-13T21:15:06.501Z,2.60
2023-02-13T21:17:34.753Z,2.60
2023-02-13T21:20:03.117Z,2.70
2023-02-13T21:22:31.743Z,2.70
2023-02-13T21:25:01.408Z,2.70
2023-02-13T21:34:56.735Z,2.60
2023-02-13T21:37:25.287Z,2.60
2023-02-13T21:42:23.622Z,2.50
2023-02-13T21:47:20.865Z,2.50
2023-02-13T21:49:49.788Z,2.50
2023-02-13T21:54:47.038Z,2.50
2023-02-13T21:57:15.337Z,2.40
2023-02-13T21:59:45.132Z,2.50
2023-02-13T22:04:42.837Z,2.50
2023-02-13T22:07:11.117Z,2.60
2023-02-13T22:09:39.513Z,2.60
2023-02-13T22:12:07.989Z,2.50
2023-02-13T22:14:36.264Z,2.50
2023-02-13T22:17:05.946Z,2.50
2023-02-13T22:22:02.911Z,2.50
2023-02-13T22:24:31.134Z,4.00
2023-02-13T22:29:27.974Z,2.30
2023-02-13T22:34:26.513Z,2.30
2023-02-13T22:46:53.387Z,2.50
2023-02-13T22:49:22.544Z,2.50
2023-02-13T22:54:20.917Z,2.50
2023-02-13T23:04:16.894Z,1.90
2023-02-13T23:09:15.966Z,2.50
2023-02-13T23:24:46.226Z,2.30
2023-02-13T23:27:15.893Z,2.30
2023-02-13T23:34:41.839Z,2.50
2023-02-13T23:37:10.373Z,2.50
2023-02-13T23:42:09.244Z,2.40
2023-02-13T23:52:03.508Z,2.30
2023-02-13T23:54:31.932Z,2.30
2023-02-13T23:57:03.447Z,2.30
2023-02-13T23:59:33.498Z,2.30
